createdAt,value
2022-12-18T00:01:25.725Z,-7.86
2022-12-18T00:03:55.319Z,-7.88
2022-12-18T00:06:24.194Z,-7.90
2022-12-18T00:08:53.356Z,-7.94
2022-12-18T00:11:22.271Z,-7.94
2022-12-18T00:13:50.703Z,-7.96
2022-12-18T00:16:21.235Z,-7.97
2022-12-18T00:18:49.094Z,-7.98
2022-12-18T00:21:17.263Z,-8.00
2022-12-18T00:23:46.346Z,-8.01
2022-12-18T00:26:17.930Z,-8.02
2022-12-18T00:28:46.741Z,-8.03
2022-12-18T00:31:16.320Z,-8.03
2022-12-18T00:33:44.223Z,-8.03
2022-12-18T00:36:14.958Z,-8.04
2022-12-18T00:38:43.340Z,-8.03
2022-12-18T00:41:12.634Z,-8.04
2022-12-18T00:43:41.365Z,-8.06
2022-12-18T00:46:09.455Z,-8.07
2022-12-18T00:48:37.466Z,-8.09
2022-12-18T00:51:05.120Z,-8.10
2022-12-18T00:53:32.854Z,-8.12
2022-12-18T00:56:00.487Z,-8.13
2022-12-18T00:58:28.280Z,-8.16
2022-12-18T01:00:57.273Z,-8.15
2022-12-18T01:03:24.994Z,-8.17
2022-12-18T01:05:52.683Z,-8.17
2022-12-18T01:08:20.856Z,-8.19
2022-12-18T01:10:48.474Z,-8.19
2022-12-18T01:13:16.260Z,-8.20
2022-12-18T01:15:50.199Z,-8.21
2022-12-18T01:18:19.800Z,-8.22
2022-12-18T01:20:47.443Z,-8.23
2022-12-18T01:23:15.131Z,-8.26
2022-12-18T01:25:42.878Z,-8.27
2022-12-18T01:28:12.039Z,-8.26
2022-12-18T01:30:39.971Z,-8.29
2022-12-18T01:33:07.703Z,-8.30
2022-12-18T01:35:43.695Z,-8.32
2022-12-18T01:38:11.483Z,-8.33
2022-12-18T01:40:39.495Z,-8.34
2022-12-18T01:43:07.260Z,-8.36
2022-12-18T01:45:34.974Z,-8.38
2022-12-18T01:48:05.165Z,-8.39
2022-12-18T01:50:36.986Z,-8.41
2022-12-18T01:53:09.952Z,-8.40
2022-12-18T01:55:43.035Z,-8.41
2022-12-18T01:58:11.460Z,-8.44
2022-12-18T02:00:39.225Z,-8.44
2022-12-18T02:03:06.937Z,-8.46
2022-12-18T02:05:42.027Z,-8.46
2022-12-18T02:08:18.783Z,-8.46
2022-12-18T02:10:53.884Z,-8.48
2022-12-18T02:13:32.168Z,-8.47
2022-12-18T02:16:06.881Z,-8.47
2022-12-18T02:18:38.984Z,-8.49
2022-12-18T02:21:14.574Z,-8.50
2022-12-18T02:23:53.707Z,-8.49
2022-12-18T02:26:28.319Z,-8.50
2022-12-18T02:29:02.398Z,-8.51
2022-12-18T02:31:37.379Z,-8.53
2022-12-18T02:34:08.727Z,-8.54
2022-12-18T02:36:43.213Z,-8.55
2022-12-18T02:39:13.703Z,-8.57
2022-12-18T02:41:50.340Z,-8.59
2022-12-18T02:44:19.022Z,-8.61
2022-12-18T02:46:48.430Z,-8.62
2022-12-18T02:49:28.799Z,-8.64
2022-12-18T02:52:07.005Z,-8.61
2022-12-18T02:54:48.797Z,-8.64
2022-12-18T02:57:25.882Z,-8.63
2022-12-18T03:00:00.724Z,-8.63
2022-12-18T03:02:35.851Z,-8.61
2022-12-18T03:05:10.308Z,-8.64
2022-12-18T03:07:41.336Z,-8.64
2022-12-18T03:10:15.999Z,-8.65
2022-12-18T03:12:53.391Z,-8.67
2022-12-18T03:15:24.947Z,-8.67
2022-12-18T03:18:05.163Z,-8.68
2022-12-18T03:20:36.494Z,-8.67
2022-12-18T03:23:09.191Z,-8.66
2022-12-18T03:25:41.496Z,-8.65
2022-12-18T03:28:15.231Z,-8.65
2022-12-18T03:30:46.905Z,-8.66
2022-12-18T03:33:20.524Z,-8.67
2022-12-18T03:35:50.618Z,-8.69
2022-12-18T03:38:19.671Z,-8.69
2022-12-18T03:40:58.280Z,-8.72
2022-12-18T03:43:38.694Z,-8.74
2022-12-18T03:46:10.154Z,-8.76
2022-12-18T03:48:43.317Z,-8.76
2022-12-18T03:51:20.753Z,-8.77
2022-12-18T03:53:58.104Z,-8.78
2022-12-18T03:56:34.984Z,-8.80
2022-12-18T03:59:06.369Z,-8.78
2022-12-18T04:01:38.069Z,-8.79
2022-12-18T04:04:08.270Z,-8.78
2022-12-18T04:06:40.483Z,-8.81
2022-12-18T04:09:10.847Z,-8.81
2022-12-18T04:11:42.077Z,-8.81
2022-12-18T04:14:16.069Z,-8.79
2022-12-18T04:16:45.928Z,-8.78
2022-12-18T04:19:16.800Z,-8.78
2022-12-18T04:21:46.452Z,-8.81
2022-12-18T04:24:15.374Z,-8.80
2022-12-18T04:26:52.131Z,-8.80
2022-12-18T04:29:26.567Z,-8.81
2022-12-18T04:31:55.177Z,-8.80
2022-12-18T04:34:24.327Z,-8.79
2022-12-18T04:36:54.287Z,-8.77
2022-12-18T04:39:24.102Z,-8.78
2022-12-18T04:41:55.296Z,-8.77
2022-12-18T04:44:22.983Z,-8.76
2022-12-18T04:46:52.917Z,-8.76
2022-12-18T04:49:20.647Z,-8.77
2022-12-18T04:51:48.343Z,-8.77
2022-12-18T04:54:16.829Z,-8.80
2022-12-18T04:56:44.480Z,-8.78
2022-12-18T04:59:12.124Z,-8.78
2022-12-18T05:01:39.908Z,-8.77
2022-12-18T05:04:09.210Z,-8.78
2022-12-18T05:06:36.872Z,-8.77
2022-12-18T05:09:04.825Z,-8.79
2022-12-18T05:11:33.692Z,-8.80
2022-12-18T05:14:01.398Z,-8.80
2022-12-18T05:16:29.060Z,-8.82
2022-12-18T05:18:56.747Z,-8.84
2022-12-18T05:21:25.753Z,-8.83
2022-12-18T05:23:53.376Z,-8.82
2022-12-18T05:26:21.482Z,-8.81
2022-12-18T05:28:49.119Z,-8.82
2022-12-18T05:31:16.994Z,-8.82
2022-12-18T05:33:44.736Z,-8.84
2022-12-18T05:36:12.681Z,-8.84
2022-12-18T05:38:41.796Z,-8.86
2022-12-18T05:41:10.422Z,-8.88
2022-12-18T05:43:40.189Z,-8.89
2022-12-18T05:46:10.061Z,-8.90
2022-12-18T05:48:37.814Z,-8.89
2022-12-18T05:51:07.885Z,-8.88
2022-12-18T05:53:37.341Z,-8.89
2022-12-18T05:56:09.187Z,-8.89
2022-12-18T05:58:37.639Z,-8.89
2022-12-18T06:01:10.586Z,-8.90
2022-12-18T06:03:38.571Z,-8.90
2022-12-18T06:06:14.118Z,-8.91
2022-12-18T06:08:46.143Z,-8.92
2022-12-18T06:11:18.952Z,-8.91
2022-12-18T06:13:46.683Z,-8.89
2022-12-18T06:16:14.668Z,-8.90
2022-12-18T06:18:42.419Z,-8.90
2022-12-18T06:21:10.186Z,-8.91
2022-12-18T06:23:39.112Z,-8.89
2022-12-18T06:26:07.869Z,-8.90
2022-12-18T06:28:36.999Z,-8.90
2022-12-18T06:31:05.700Z,-8.92
2022-12-18T06:33:33.699Z,-8.91
2022-12-18T06:36:02.412Z,-8.90
2022-12-18T06:38:30.099Z,-8.90
2022-12-18T06:40:57.880Z,-8.91
2022-12-18T06:43:25.702Z,-8.89
2022-12-18T06:46:00.857Z,-8.87
2022-12-18T06:48:28.725Z,-8.86
2022-12-18T06:50:56.788Z,-8.86
2022-12-18T06:53:24.715Z,-8.88
2022-12-18T06:55:52.423Z,-8.87
2022-12-18T06:58:20.301Z,-8.87
2022-12-18T07:00:47.977Z,-8.86
2022-12-18T07:03:17.054Z,-8.86
2022-12-18T07:05:44.680Z,-8.84
2022-12-18T07:08:12.353Z,-8.84
2022-12-18T07:10:47.406Z,-8.84
2022-12-18T07:13:15.230Z,-8.85
2022-12-18T07:15:43.375Z,-8.83
2022-12-18T07:18:11.870Z,-8.84
2022-12-18T07:20:40.870Z,-8.85
2022-12-18T07:23:08.549Z,-8.85
2022-12-18T07:25:37.871Z,-8.85
2022-12-18T07:28:06.146Z,-8.85
2022-12-18T07:30:33.801Z,-8.84
2022-12-18T07:33:01.483Z,-8.84
2022-12-18T07:35:29.211Z,-8.81
2022-12-18T07:37:58.228Z,-8.80
2022-12-18T07:40:25.876Z,-8.78
2022-12-18T07:42:53.538Z,-8.77
2022-12-18T07:45:21.207Z,-8.74
2022-12-18T07:47:48.868Z,-8.72
2022-12-18T07:50:16.878Z,-8.70
2022-12-18T07:52:44.564Z,-8.65
2022-12-18T07:55:13.624Z,-8.63
2022-12-18T07:57:50.442Z,-8.60
2022-12-18T08:00:19.494Z,-8.57
2022-12-18T08:02:49.408Z,-8.54
2022-12-18T08:05:17.310Z,-8.51
2022-12-18T08:07:44.956Z,-8.49
2022-12-18T08:10:14.274Z,-8.46
2022-12-18T08:12:41.950Z,-8.40
2022-12-18T08:15:10.290Z,-8.39
2022-12-18T08:17:38.127Z,-8.35
2022-12-18T08:20:06.194Z,-8.29
2022-12-18T08:22:38.482Z,-8.23
2022-12-18T08:25:07.133Z,-8.14
2022-12-18T08:27:36.143Z,-8.06
2022-12-18T08:30:03.981Z,-8.00
2022-12-18T08:32:33.704Z,-7.93
2022-12-18T08:35:01.594Z,-7.82
2022-12-18T08:37:29.303Z,-7.75
2022-12-18T08:39:56.962Z,-7.67
2022-12-18T08:42:42.038Z,-7.60
2022-12-18T08:45:11.800Z,-7.52
2022-12-18T08:47:39.484Z,-7.43
2022-12-18T08:50:08.027Z,-7.36
2022-12-18T08:52:35.695Z,-7.30
2022-12-18T08:55:03.341Z,-7.23
2022-12-18T08:57:30.989Z,-7.09
2022-12-18T08:59:58.635Z,-7.01
2022-12-18T09:02:27.919Z,-6.91
2022-12-18T09:04:57.728Z,-6.78
2022-12-18T09:07:25.548Z,-6.62
2022-12-18T09:09:53.204Z,-6.49
2022-12-18T09:12:20.928Z,-6.34
2022-12-18T09:14:48.613Z,-6.17
2022-12-18T09:17:16.360Z,-6.01
2022-12-18T09:19:45.490Z,-5.86
2022-12-18T09:22:13.285Z,-5.70
2022-12-18T09:24:40.971Z,-5.57
2022-12-18T09:27:08.671Z,-5.41
2022-12-18T09:29:36.621Z,-5.25
2022-12-18T09:32:04.302Z,-5.10
2022-12-18T09:34:32.061Z,-4.95
2022-12-18T09:37:01.086Z,-4.84
2022-12-18T09:39:28.761Z,-4.72
2022-12-18T09:41:59.303Z,-4.61
2022-12-18T09:44:30.125Z,-4.54
2022-12-18T09:47:06.923Z,-4.45
2022-12-18T09:49:39.856Z,-4.37
2022-12-18T09:52:13.817Z,-4.23
2022-12-18T09:54:42.913Z,-4.10
2022-12-18T09:57:15.347Z,-4.06
2022-12-18T09:59:45.916Z,-4.02
2022-12-18T10:02:20.179Z,-3.99
2022-12-18T10:04:57.477Z,-3.96
2022-12-18T10:07:37.316Z,-3.93
2022-12-18T10:10:13.538Z,-3.83
2022-12-18T10:12:48.906Z,-3.78
2022-12-18T10:15:25.437Z,-3.74
2022-12-18T10:17:56.653Z,-3.66
2022-12-18T10:20:31.723Z,-3.63
2022-12-18T10:23:10.399Z,-3.50
2022-12-18T10:25:54.643Z,-3.41
2022-12-18T10:28:23.551Z,-3.26
2022-12-18T10:30:51.223Z,-3.17
2022-12-18T10:33:21.119Z,-3.09
2022-12-18T10:35:51.424Z,-2.93
2022-12-18T10:38:27.299Z,-2.80
2022-12-18T10:40:57.531Z,-2.70
2022-12-18T10:43:27.895Z,-2.53
2022-12-18T10:46:18.807Z,-2.33
2022-12-18T10:48:54.279Z,-2.18
2022-12-18T10:51:24.289Z,-2.02
2022-12-18T10:53:59.012Z,-1.88
2022-12-18T10:56:29.184Z,-1.77
2022-12-18T10:59:01.950Z,-1.71
2022-12-18T11:01:33.080Z,-1.63
2022-12-18T11:04:03.980Z,-1.55
2022-12-18T11:06:31.814Z,-1.47
2022-12-18T11:09:12.235Z,-1.41
2022-12-18T11:11:41.105Z,-1.40
2022-12-18T11:14:19.069Z,-1.40
2022-12-18T11:17:23.823Z,-1.39
2022-12-18T11:19:39.021Z,-1.36
2022-12-18T11:22:23.714Z,-1.34
2022-12-18T11:25:30.841Z,-1.33
2022-12-18T11:27:51.427Z,-1.29
2022-12-18T11:30:26.015Z,-1.22
2022-12-18T11:32:57.820Z,-1.14
2022-12-18T11:35:36.681Z,-1.09
2022-12-18T11:38:12.702Z,-1.04
2022-12-18T11:40:46.529Z,-0.94
2022-12-18T11:43:19.833Z,-0.91
2022-12-18T11:45:53.811Z,-0.83
2022-12-18T11:48:25.868Z,-0.76
2022-12-18T11:50:55.896Z,-0.70
2022-12-18T11:53:25.199Z,-0.64
2022-12-18T11:56:04.246Z,-0.55
2022-12-18T11:58:46.813Z,-0.49
2022-12-18T12:01:24.018Z,-0.49
2022-12-18T12:04:05.085Z,-0.46
2022-12-18T12:06:42.935Z,-0.44
2022-12-18T12:09:23.103Z,-0.40
2022-12-18T12:12:09.376Z,-0.36
2022-12-18T12:14:51.390Z,-0.35
2022-12-18T12:17:30.530Z,-0.34
2022-12-18T12:20:09.562Z,-0.32
2022-12-18T12:22:42.979Z,-0.32
2022-12-18T12:25:29.741Z,-0.30
2022-12-18T12:28:10.172Z,-0.29
2022-12-18T12:30:47.704Z,-0.26
2022-12-18T12:33:29.054Z,-0.22
2022-12-18T12:36:05.528Z,-0.19
2022-12-18T12:38:37.062Z,-0.21
2022-12-18T12:41:27.624Z,-0.18
2022-12-18T12:43:59.012Z,-0.19
2022-12-18T12:46:28.472Z,-0.19
2022-12-18T12:48:58.877Z,-0.17
2022-12-18T12:51:30.011Z,-0.17
2022-12-18T12:54:00.111Z,-0.16
2022-12-18T12:56:39.112Z,-0.14
2022-12-18T12:59:18.150Z,-0.12
2022-12-18T13:01:56.829Z,-0.09
2022-12-18T13:04:34.141Z,-0.11
2022-12-18T13:07:07.442Z,-0.10
2022-12-18T13:09:37.111Z,-0.06
2022-12-18T13:12:30.186Z,-0.03
2022-12-18T13:15:23.854Z,0.00
2022-12-18T13:18:06.142Z,0.04
2022-12-18T13:20:39.860Z,0.05
2022-12-18T13:23:32.852Z,0.05
2022-12-18T13:26:26.477Z,0.04
2022-12-18T13:28:58.516Z,0.06
2022-12-18T13:32:09.001Z,0.08
2022-12-18T13:34:37.411Z,0.10
2022-12-18T13:37:44.669Z,0.10
2022-12-18T13:40:56.121Z,0.08
2022-12-18T13:43:43.781Z,0.09
2022-12-18T13:46:25.263Z,0.06
2022-12-18T13:49:02.661Z,0.09
2022-12-18T13:51:33.866Z,0.11
2022-12-18T13:54:04.002Z,0.11
2022-12-18T13:56:35.046Z,0.11
2022-12-18T13:59:16.590Z,0.11
2022-12-18T14:01:48.530Z,0.10
2022-12-18T14:04:23.571Z,0.07
2022-12-18T14:06:54.135Z,0.05
2022-12-18T14:09:25.948Z,0.01
2022-12-18T14:12:15.260Z,-0.01
2022-12-18T14:14:48.029Z,-0.05
2022-12-18T14:17:18.762Z,-0.06
2022-12-18T14:19:49.611Z,-0.07
2022-12-18T14:22:19.774Z,-0.11
2022-12-18T14:24:48.045Z,-0.11
2022-12-18T14:27:24.863Z,-0.12
2022-12-18T14:29:52.596Z,-0.13
2022-12-18T14:32:22.481Z,-0.14
2022-12-18T14:34:52.162Z,-0.16
2022-12-18T14:37:23.334Z,-0.14
2022-12-18T14:39:56.216Z,-0.20
2022-12-18T14:42:23.981Z,-0.20
2022-12-18T14:45:12.866Z,-0.22
2022-12-18T14:47:40.895Z,-0.24
2022-12-18T14:50:15.565Z,-0.23
2022-12-18T14:52:43.327Z,-0.22
2022-12-18T14:55:17.593Z,-0.25
2022-12-18T14:57:46.002Z,-0.22
2022-12-18T15:00:19.353Z,-0.21
2022-12-18T15:02:50.378Z,-0.22
2022-12-18T15:05:21.012Z,-0.20
2022-12-18T15:07:50.550Z,-0.19
2022-12-18T15:10:20.996Z,-0.18
2022-12-18T15:12:49.890Z,-0.16
2022-12-18T15:15:50.104Z,-0.16
2022-12-18T15:18:22.014Z,-0.15
2022-12-18T15:20:51.738Z,-0.12
2022-12-18T15:23:21.974Z,-0.11
2022-12-18T15:25:56.135Z,-0.08
2022-12-18T15:28:26.675Z,-0.06
2022-12-18T15:31:05.954Z,-0.04
2022-12-18T15:33:36.842Z,-0.04
2022-12-18T15:36:07.352Z,0.00
2022-12-18T15:38:35.129Z,0.04
2022-12-18T15:41:02.911Z,0.08
2022-12-18T15:43:36.236Z,0.08
2022-12-18T15:46:05.540Z,0.10
2022-12-18T15:48:37.456Z,0.12
2022-12-18T15:51:06.779Z,0.12
2022-12-18T15:53:35.378Z,0.15
2022-12-18T15:56:20.680Z,0.15
2022-12-18T15:58:48.652Z,0.20
2022-12-18T16:01:17.352Z,0.21
2022-12-18T16:03:46.626Z,0.24
2022-12-18T16:06:14.438Z,0.26
2022-12-18T16:08:42.132Z,0.30
2022-12-18T16:11:38.616Z,0.32
2022-12-18T16:14:08.150Z,0.31
2022-12-18T16:16:35.905Z,0.33
2022-12-18T16:19:04.895Z,0.33
2022-12-18T16:21:34.258Z,0.34
2022-12-18T16:24:02.186Z,0.34
2022-12-18T16:26:29.886Z,0.36
2022-12-18T16:28:57.516Z,0.34
2022-12-18T16:31:25.368Z,0.35
2022-12-18T16:34:16.214Z,0.37
2022-12-18T16:36:43.927Z,0.40
2022-12-18T16:39:11.999Z,0.41
2022-12-18T16:41:39.682Z,0.39
2022-12-18T16:44:07.423Z,0.43
2022-12-18T16:46:35.297Z,0.47
2022-12-18T16:49:03.045Z,0.49
2022-12-18T16:51:32.071Z,0.52
2022-12-18T16:53:59.722Z,0.50
2022-12-18T16:56:27.411Z,0.53
2022-12-18T16:58:57.067Z,0.52
2022-12-18T17:01:29.963Z,0.54
2022-12-18T17:03:59.273Z,0.53
2022-12-18T17:06:29.516Z,0.53
2022-12-18T17:08:59.701Z,0.55
2022-12-18T17:11:28.893Z,0.55
2022-12-18T17:13:57.258Z,0.60
2022-12-18T17:16:26.906Z,0.62
2022-12-18T17:18:54.823Z,0.63
2022-12-18T17:21:22.538Z,0.64
2022-12-18T17:23:50.206Z,0.64
2022-12-18T17:26:19.194Z,0.65
2022-12-18T17:28:47.145Z,0.66
2022-12-18T17:31:18.358Z,0.67
2022-12-18T17:33:46.461Z,0.67
2022-12-18T17:36:14.675Z,0.65
2022-12-18T17:38:42.389Z,0.68
2022-12-18T17:41:11.857Z,0.67
2022-12-18T17:43:45.565Z,0.69
2022-12-18T17:46:15.057Z,0.69
2022-12-18T17:48:42.912Z,0.72
2022-12-18T17:51:12.026Z,0.76
2022-12-18T17:53:40.619Z,0.76
2022-12-18T17:56:10.876Z,0.81
2022-12-18T17:58:39.279Z,0.83
2022-12-18T18:01:08.543Z,0.85
2022-12-18T18:03:38.936Z,0.87
2022-12-18T18:06:07.628Z,0.88
2022-12-18T18:08:36.634Z,0.91
2022-12-18T18:11:20.305Z,0.93
2022-12-18T18:14:03.080Z,0.91
2022-12-18T18:16:34.516Z,0.91
2022-12-18T18:19:03.694Z,0.93
2022-12-18T18:21:32.185Z,0.96
2022-12-18T18:24:02.151Z,0.99
2022-12-18T18:26:31.220Z,1.00
2022-12-18T18:29:00.215Z,1.02
2022-12-18T18:31:33.117Z,1.02
2022-12-18T18:34:03.592Z,1.01
2022-12-18T18:36:31.312Z,1.02
2022-12-18T18:39:01.064Z,1.01
2022-12-18T18:41:29.894Z,1.03
2022-12-18T18:43:58.807Z,1.03
2022-12-18T18:46:27.188Z,1.04
2022-12-18T18:48:56.475Z,0.89
2022-12-18T18:51:24.816Z,0.86
2022-12-18T18:53:53.693Z,0.89
2022-12-18T18:59:10.930Z,0.84
2022-12-18T19:01:38.682Z,0.84
2022-12-18T19:04:07.833Z,0.77
2022-12-18T19:06:35.670Z,0.77
2022-12-18T19:09:04.847Z,0.73
2022-12-18T19:11:59.210Z,0.65
2022-12-18T19:14:27.018Z,0.65
2022-12-18T19:16:54.721Z,0.64
2022-12-18T19:19:25.245Z,0.58
2022-12-18T19:21:52.883Z,0.50
2022-12-18T19:24:22.409Z,0.49
2022-12-18T19:26:52.120Z,0.50
2022-12-18T19:29:21.480Z,0.46
2022-12-18T19:31:49.500Z,0.35
2022-12-18T19:34:17.333Z,0.36
2022-12-18T19:36:47.150Z,0.33
2022-12-18T19:39:17.052Z,0.30
2022-12-18T19:41:45.572Z,0.26
2022-12-18T19:44:15.235Z,0.23
2022-12-18T19:46:43.275Z,0.25
2022-12-18T19:49:11.543Z,0.24
2022-12-18T19:51:50.280Z,0.26
2022-12-18T19:54:18.400Z,0.26
2022-12-18T19:56:47.008Z,0.23
2022-12-18T19:59:15.190Z,0.20
2022-12-18T20:01:43.383Z,0.20
2022-12-18T20:04:11.205Z,0.19
2022-12-18T20:06:49.402Z,0.14
2022-12-18T20:09:17.582Z,0.13
2022-12-18T20:11:45.796Z,0.12
2022-12-18T20:14:16.909Z,0.13
2022-12-18T20:16:51.512Z,0.14
2022-12-18T20:19:19.836Z,0.09
2022-12-18T20:21:49.661Z,0.06
2022-12-18T20:24:17.340Z,0.06
2022-12-18T20:26:45.053Z,0.06
2022-12-18T20:29:12.833Z,0.04
2022-12-18T20:31:41.101Z,0.04
2022-12-18T20:34:08.798Z,0.06
2022-12-18T20:36:37.731Z,0.07
2022-12-18T20:39:12.112Z,0.09
2022-12-18T20:41:40.150Z,0.11
2022-12-18T20:44:19.015Z,0.10
2022-12-18T20:46:50.871Z,0.13
2022-12-18T20:49:18.653Z,0.10
2022-12-18T20:51:51.216Z,0.10
2022-12-18T20:54:20.738Z,0.08
2022-12-18T20:56:48.431Z,0.07
2022-12-18T20:59:19.587Z,0.02
2022-12-18T21:01:48.776Z,0.02
2022-12-18T21:04:18.369Z,0.10
2022-12-18T21:06:57.836Z,0.08
2022-12-18T21:09:37.251Z,0.09
2022-12-18T21:12:24.654Z,0.10
2022-12-18T21:14:59.435Z,0.11
2022-12-18T21:17:29.750Z,0.14
2022-12-18T21:20:00.622Z,0.13
2022-12-18T21:22:28.857Z,0.13
2022-12-18T21:24:58.028Z,0.17
2022-12-18T21:27:28.116Z,0.19
2022-12-18T21:29:55.904Z,0.24
2022-12-18T21:32:24.011Z,0.26
2022-12-18T21:34:57.166Z,0.22
2022-12-18T21:37:27.206Z,0.26
2022-12-18T21:39:54.837Z,0.31
2022-12-18T21:42:43.712Z,0.35
2022-12-18T21:45:12.934Z,0.36
2022-12-18T21:47:40.714Z,0.37
2022-12-18T21:50:09.101Z,0.40
2022-12-18T21:52:37.834Z,0.42
2022-12-18T21:55:09.535Z,0.45
2022-12-18T21:57:39.700Z,0.47
2022-12-18T22:00:18.474Z,0.51
2022-12-18T22:02:49.607Z,0.56
2022-12-18T22:05:37.339Z,0.61
2022-12-18T22:08:14.972Z,0.63
2022-12-18T22:10:45.443Z,0.64
2022-12-18T22:13:14.573Z,0.68
2022-12-18T22:15:42.432Z,0.73
2022-12-18T22:18:10.105Z,0.71
2022-12-18T22:20:37.766Z,0.78
2022-12-18T22:23:06.336Z,0.81
2022-12-18T22:25:34.785Z,0.85
2022-12-18T22:28:20.843Z,0.87
2022-12-18T22:30:50.225Z,0.90
2022-12-18T22:33:21.804Z,0.93
2022-12-18T22:35:49.505Z,0.95
2022-12-18T22:38:17.211Z,0.95
2022-12-18T22:40:44.912Z,0.97
2022-12-18T22:43:12.783Z,1.00
2022-12-18T22:45:40.473Z,1.09
2022-12-18T22:48:09.760Z,1.12
2022-12-18T22:50:37.482Z,1.13
2022-12-18T22:53:07.687Z,1.19
2022-12-18T22:55:35.535Z,1.23
2022-12-18T22:58:03.263Z,1.24
2022-12-18T23:00:30.971Z,1.29
2022-12-18T23:03:00.928Z,1.32
2022-12-18T23:05:31.420Z,1.35
2022-12-18T23:07:59.639Z,1.37
2022-12-18T23:10:28.848Z,1.43
2022-12-18T23:12:56.522Z,1.46
2022-12-18T23:15:28.066Z,1.48
2022-12-18T23:17:56.787Z,1.48
2022-12-18T23:20:24.526Z,1.52
2022-12-18T23:22:54.782Z,1.52
2022-12-18T23:25:22.499Z,1.54
2022-12-18T23:27:50.294Z,1.58
2022-12-18T23:30:17.993Z,1.63
2022-12-18T23:32:45.689Z,1.67
2022-12-18T23:35:15.876Z,1.67
2022-12-18T23:38:00.225Z,1.71
2022-12-18T23:40:30.417Z,1.73
2022-12-18T23:42:58.484Z,1.76
2022-12-18T23:45:26.140Z,1.77
2022-12-18T23:47:53.848Z,1.83
2022-12-18T23:50:27.773Z,1.84
2022-12-18T23:53:05.501Z,1.84
2022-12-18T23:55:40.350Z,1.88
2022-12-18T23:58:09.204Z,1.85
